Time;durP1;ratioP1;P1;durP2;ratioP2;P2;SDS_P1;SDS_P2;PMS_P1;PMS_P2;Temp;Humidity;BMP_temperature;BMP_pressure;BME280_temperature;BME280_humidity;BME280_pressure;Samples;Min_cycle;Max_cycle;Signal;HPM_P1;HPM_P2
2021/08/27 00:02:13;;;;;;;14.07;7.10;;;;;;;11.41;82.27;98896.33;1761772;80;20957;-63
2021/08/27 00:04:37;;;;;;;12.30;7.75;;;;;;;11.39;82.29;98906.03;1737512;79;21514;-63
2021/08/27 00:07:08;;;;;;;14.70;6.70;;;;;;;11.42;82.52;98907.14;1739012;80;21908;-63
2021/08/27 00:09:43;;;;;;;12.60;6.92;;;;;;;11.45;82.45;98911.81;1725223;80;21002;-63
2021/08/27 00:12:10;;;;;;;14.50;6.97;;;;;;;11.45;82.50;98898.74;1738932;81;21546;-63
2021/08/27 00:14:42;;;;;;;10.98;6.08;;;;;;;11.43;82.41;98901.47;1742547;80;20918;-63
2021/08/27 00:17:12;;;;;;;13.13;5.75;;;;;;;11.37;82.40;98894.86;1742658;80;21526;-63
2021/08/27 00:19:45;;;;;;;10.55;6.42;;;;;;;11.37;82.49;98897.48;1717757;81;21197;-63
2021/08/27 00:22:15;;;;;;;11.00;6.40;;;;;;;11.36;82.50;98891.86;1738757;80;21688;-63
2021/08/27 00:24:46;;;;;;;11.38;6.25;;;;;;;11.25;82.25;98895.62;1698417;80;21077;-63
2021/08/27 00:27:17;;;;;;;16.48;6.33;;;;;;;11.10;82.19;98901.83;1715665;82;21028;-63
2021/08/27 00:29:49;;;;;;;11.60;5.87;;;;;;;11.00;82.39;98898.09;1741175;80;21005;-63
2021/08/27 00:32:27;;;;;;;9.40;6.50;;;;;;;10.98;82.60;98900.82;1735018;81;21980;-63
2021/08/27 00:34:59;;;;;;;12.45;5.83;;;;;;;10.96;82.69;98900.90;1745562;80;21052;-63
2021/08/27 00:37:32;;;;;;;11.45;5.25;;;;;;;10.92;82.74;98904.65;1733097;80;21029;-64
2021/08/27 00:40:08;;;;;;;10.38;6.47;;;;;;;10.91;82.79;98900.34;1742029;80;21104;-63
2021/08/27 00:42:41;;;;;;;13.55;6.00;;;;;;;10.91;82.88;98902.12;1719787;81;21053;-63
2021/08/27 00:45:13;;;;;;;14.73;7.67;;;;;;;10.86;82.74;98907.61;1742609;80;22377;-63
2021/08/27 00:47:49;;;;;;;12.10;5.97;;;;;;;10.78;82.71;98909.85;1739687;81;21037;-63
2021/08/27 00:50:19;;;;;;;10.58;6.83;;;;;;;10.70;82.69;98918.64;1742637;81;20996;-63
2021/08/27 00:52:54;;;;;;;24.20;5.42;;;;;;;10.65;82.77;98919.38;1719501;81;21161;-63
2021/08/27 00:55:44;;;;;;;34.55;5.72;;;;;;;10.57;82.79;98924.22;1691417;81;20974;-63
2021/08/27 00:58:23;;;;;;;42.30;6.35;;;;;;;10.48;82.74;98930.84;1745461;79;21173;-64
2021/08/27 01:00:49;;;;;;;37.17;8.03;;;;;;;10.37;82.80;98926.25;1768860;80;21491;-64
2021/08/27 01:03:21;;;;;;;38.48;4.83;;;;;;;10.35;82.91;98928.09;1770876;79;21117;-64
2021/08/27 01:05:57;;;;;;;21.20;4.28;;;;;;;10.31;82.86;98933.14;1777916;79;20985;-64
2021/08/27 01:08:52;;;;;;;41.48;4.92;;;;;;;10.28;82.92;98934.63;1770622;79;21076;-63
2021/08/27 01:11:49;;;;;;;26.77;4.15;;;;;;;10.24;82.99;98931.77;1769582;79;21145;-63
2021/08/27 01:14:40;;;;;;;;;;;;;;;10.17;82.90;98935.68;1781315;79;21590;-63
2021/08/27 01:17:22;;;;;;;8.23;4.33;;;;;;;10.01;82.92;98940.94;1772124;79;20102;-64
2021/08/27 01:20:30;;;;;;;3.37;2.55;;;;;;;9.90;82.99;98937.62;1773080;79;21194;-64
2021/08/27 01:23:26;;;;;;;5.78;3.40;;;;;;;9.85;83.18;98942.26;1778105;79;20989;-64
2021/08/27 01:26:14;;;;;;;;;;;;;;;;;;;;;
2021/08/27 01:28:34;;;;;;;3.83;2.55;;;;;;;9.97;83.48;98958.97;1693287;82;21103;-64
2021/08/27 01:31:42;;;;;;;2.80;1.80;;;;;;;9.96;83.33;98965.95;1697901;82;20995;-63
2021/08/27 01:34:31;;;;;;;2.95;2.00;;;;;;;9.94;83.29;98967.84;1735737;80;21005;-64
2021/08/27 01:37:07;;;;;;;5.22;2.75;;;;;;;9.94;83.42;98970.45;1744374;81;21036;-63
2021/08/27 01:39:46;;;;;;;5.90;3.27;;;;;;;9.97;83.49;98972.01;1739427;81;22138;-64
2021/08/27 01:42:21;;;;;;;11.57;4.65;;;;;;;10.00;83.52;98980.52;1730540;81;21110;-64
2021/08/27 01:44:52;;;;;;;11.85;5.83;;;;;;;10.03;83.56;98980.34;1739318;81;21071;-64
2021/08/27 01:47:31;;;;;;;10.90;4.53;;;;;;;10.06;83.57;98980.64;1735332;81;21050;-64
2021/08/27 01:50:04;;;;;;;10.30;4.35;;;;;;;10.13;83.68;98979.81;1740589;81;20924;-63
2021/08/27 01:52:38;;;;;;;10.70;4.80;;;;;;;10.21;83.70;98982.82;1718780;81;21804;-64
2021/08/27 01:55:15;;;;;;;9.28;4.35;;;;;;;10.22;83.60;98987.97;1731609;81;21026;-63
2021/08/27 01:57:51;;;;;;;3.65;2.17;;;;;;;10.26;83.70;98983.41;1728744;81;21266;-64
2021/08/27 02:00:22;;;;;;;8.38;4.15;;;;;;;10.33;83.68;98985.22;1764648;79;21480;-64
2021/08/27 02:02:53;;;;;;;4.75;2.90;;;;;;;10.35;83.56;98988.11;1743376;80;21127;-63
2021/08/27 02:05:28;;;;;;;8.23;3.87;;;;;;;10.32;83.55;98990.91;1775593;79;21324;-64
2021/08/27 02:08:03;;;;;;;5.40;2.72;;;;;;;10.33;83.70;98988.66;1732153;81;22366;-63
2021/08/27 02:10:53;;;;;;;6.42;2.85;;;;;;;10.37;83.77;98990.65;1741617;79;21787;-64
2021/08/27 02:13:29;;;;;;;9.98;3.50;;;;;;;10.40;83.75;98992.61;1729878;81;20998;-64
2021/08/27 02:16:19;;;;;;;5.05;3.05;;;;;;;10.46;83.86;98993.55;1731341;81;20994;-63
2021/08/27 02:18:51;;;;;;;6.00;3.47;;;;;;;10.49;83.78;99001.20;1708578;82;21406;-64
2021/08/27 02:21:22;;;;;;;8.63;3.90;;;;;;;10.51;83.77;99001.95;1708838;82;20953;-63
2021/08/27 02:23:56;;;;;;;11.03;4.33;;;;;;;10.52;83.82;99002.32;1710913;82;21525;-64
2021/08/27 02:26:28;;;;;;;11.35;5.03;;;;;;;10.51;83.70;99000.65;1709935;82;21057;-63
2021/08/27 02:28:58;;;;;;;11.20;3.95;;;;;;;10.50;83.69;99000.28;1706414;82;21000;-64
2021/08/27 02:31:29;;;;;;;8.23;3.92;;;;;;;10.48;83.72;98998.22;1709865;82;20945;-64
2021/08/27 02:34:04;;;;;;;8.38;3.50;;;;;;;10.49;83.84;98999.89;1708850;82;21067;-64
2021/08/27 02:36:41;;;;;;;5.65;3.47;;;;;;;10.52;83.90;98999.71;1666491;83;21607;-63
2021/08/27 02:39:15;;;;;;;7.62;3.50;;;;;;;10.60;84.15;99002.35;1686300;83;21047;-63
2021/08/27 02:41:50;;;;;;;8.08;3.67;;;;;;;10.66;84.10;99002.81;1697524;82;21012;-63
2021/08/27 02:44:19;;;;;;;8.68;4.15;;;;;;;10.70;84.13;98998.28;1709433;82;21394;-63
2021/08/27 02:46:54;;;;;;;9.38;4.90;;;;;;;10.73;84.12;99000.23;1709953;82;21507;-63
2021/08/27 02:49:26;;;;;;;10.55;4.42;;;;;;;10.71;83.88;98997.34;1711348;82;21581;-64
2021/08/27 02:52:20;;;;;;;10.88;4.92;;;;;;;10.66;83.91;99006.73;1711670;82;20968;-64
2021/08/27 02:55:14;;;;;;;12.45;4.45;;;;;;;10.68;84.06;99000.13;1679455;82;21087;-64
2021/08/27 02:58:06;;;;;;;10.48;4.17;;;;;;;10.72;84.00;99004.23;1694181;82;21561;-64
2021/08/27 03:00:39;;;;;;;8.90;4.60;;;;;;;10.70;83.92;98996.50;1713397;82;21517;-64
2021/08/27 03:03:11;;;;;;;12.60;4.92;;;;;;;10.70;83.93;99006.11;1707379;82;20973;-65
2021/08/27 03:05:43;;;;;;;14.98;5.60;;;;;;;10.70;84.07;99003.50;1685368;82;20969;-64
2021/08/27 03:08:19;;;;;;;12.88;4.65;;;;;;;10.74;84.23;99004.98;1700189;81;21630;-64
2021/08/27 03:10:56;;;;;;;11.83;4.97;;;;;;;10.78;84.23;99005.63;1707599;82;21078;-64
2021/08/27 03:13:46;;;;;;;16.10;4.40;;;;;;;10.80;84.23;99009.83;1710407;82;21775;-64
2021/08/27 03:16:19;;;;;;;7.67;4.50;;;;;;;10.85;84.21;99009.10;1704746;82;21507;-64
2021/08/27 03:19:05;;;;;;;11.53;4.95;;;;;;;10.78;83.96;99003.86;1661872;84;21121;-64
2021/08/27 03:21:50;;;;;;;13.10;5.30;;;;;;;10.77;84.08;99016.55;1639904;86;20954;-64
2021/08/27 03:24:27;;;;;;;9.03;5.00;;;;;;;10.80;84.23;99012.45;1694370;83;21662;-64
2021/08/27 03:27:00;;;;;;;11.63;4.83;;;;;;;10.82;84.20;99018.42;1688922;83;20970;-64
2021/08/27 03:29:33;;;;;;;10.75;4.72;;;;;;;10.81;84.14;99021.98;1690423;83;21030;-64
2021/08/27 03:32:04;;;;;;;11.30;3.70;;;;;;;10.81;84.13;99020.67;1689426;83;20971;-64
2021/08/27 03:34:55;;;;;;;10.53;4.30;;;;;;;10.79;84.12;99017.30;1691586;83;21062;-63
2021/08/27 03:37:25;;;;;;;8.58;3.77;;;;;;;10.79;84.17;99017.30;1674816;84;21029;-63
2021/08/27 03:39:56;;;;;;;8.33;4.10;;;;;;;10.81;84.14;99027.20;1675710;84;21545;-63
2021/08/27 03:42:26;;;;;;;8.50;4.60;;;;;;;10.81;84.32;99026.34;1675073;84;21043;-63
2021/08/27 03:44:55;;;;;;;12.80;3.90;;;;;;;10.78;84.14;99026.52;1631596;84;21215;-64
2021/08/27 03:47:22;;;;;;;11.85;5.35;;;;;;;10.79;84.31;99026.45;1673538;84;20968;-63
2021/08/27 03:49:49;;;;;;;8.65;3.83;;;;;;;10.83;84.35;99025.32;1679769;84;21288;-63
2021/08/27 03:52:16;;;;;;;;;;;;;;;10.80;84.14;99030.73;1679572;84;20948;-64
2021/08/27 03:54:43;;;;;;;9.23;4.33;;;;;;;10.74;84.12;99033.70;1683790;84;20418;-64
2021/08/27 03:57:11;;;;;;;10.58;4.90;;;;;;;10.72;84.18;99035.55;1680240;84;20957;-63
2021/08/27 03:59:38;;;;;;;12.93;4.67;;;;;;;10.71;84.25;99037.33;1674639;84;21025;-64
2021/08/27 04:02:06;;;;;;;16.27;5.25;;;;;;;10.69;84.23;99035.74;1674121;84;21268;-63
2021/08/27 04:04:33;;;;;;;14.98;5.90;;;;;;;10.67;84.27;99032.37;1622100;87;21021;-63
2021/08/27 04:07:03;;;;;;;17.62;6.22;;;;;;;10.67;84.31;99042.38;1622671;87;21757;-64
2021/08/27 04:09:33;;;;;;;25.65;7.20;;;;;;;10.67;84.33;99038.90;1622477;87;21077;-64
2021/08/27 04:12:03;;;;;;;20.45;6.87;;;;;;;10.68;84.39;99044.52;1675053;84;21053;-63
2021/08/27 04:14:30;;;;;;;27.62;7.70;;;;;;;10.74;84.62;99040.23;1672505;84;21068;-63
2021/08/27 04:17:02;;;;;;;26.30;6.95;;;;;;;10.79;84.53;99044.72;1671537;84;21630;-63
2021/08/27 04:19:30;;;;;;;30.50;7.87;;;;;;;10.80;84.45;99046.39;1676913;84;21035;-64
2021/08/27 04:21:57;;;;;;;27.85;7.37;;;;;;;10.82;84.49;99039.31;1679782;84;21662;-64
2021/08/27 04:24:25;;;;;;;31.33;7.80;;;;;;;10.85;84.52;99046.97;1622865;86;21187;-64
2021/08/27 04:26:52;;;;;;;27.62;8.00;;;;;;;10.91;84.66;99046.59;1623129;87;21590;-64
2021/08/27 04:29:19;;;;;;;26.85;7.80;;;;;;;10.95;84.62;99045.50;1621992;86;21093;-64
2021/08/27 04:31:45;;;;;;;21.25;7.17;;;;;;;10.98;84.51;99044.01;1625554;87;21019;-64
2021/08/27 04:34:12;;;;;;;22.30;7.45;;;;;;;10.98;84.46;99046.63;1626023;87;21065;-63
2021/08/27 04:36:39;;;;;;;38.25;8.63;;;;;;;11.06;84.70;99046.61;1647148;85;20970;-64
2021/08/27 04:39:06;;;;;;;32.42;7.95;;;;;;;11.10;84.69;99058.58;1662262;84;21099;-63
2021/08/27 04:41:32;;;;;;;22.63;7.37;;;;;;;11.13;84.63;99046.16;1680637;84;21495;-64
2021/08/27 04:43:59;;;;;;;30.63;6.87;;;;;;;11.16;84.60;99046.45;1647078;85;21096;-64
2021/08/27 04:46:26;;;;;;;33.30;7.00;;;;;;;11.18;84.59;99045.89;1702268;82;20953;-63
2021/08/27 04:48:52;;;;;;;26.27;7.27;;;;;;;11.20;84.45;99049.23;1709927;82;21550;-64
2021/08/27 04:51:19;;;;;;;17.75;7.37;;;;;;;11.20;84.37;99046.62;1707410;82;21059;-64
2021/08/27 04:53:46;;;;;;;17.50;6.92;;;;;;;11.16;84.28;99042.53;1710850;82;26728;-64
2021/08/27 04:56:15;;;;;;;16.32;6.20;;;;;;;11.17;84.38;99038.97;1706994;82;21047;-64
2021/08/27 04:58:42;;;;;;;;;;;;;;;11.23;84.49;99045.59;1709313;82;21499;-64
2021/08/27 05:01:08;;;;;;;14.23;6.00;;;;;;;11.30;84.66;99042.52;1700696;82;20144;-64
2021/08/27 05:03:35;;;;;;;21.40;7.47;;;;;;;11.37;84.71;99032.08;1711263;82;21051;-64
2021/08/27 05:06:03;;;;;;;18.30;5.90;;;;;;;11.49;84.94;99030.95;1706737;82;21461;-64
2021/08/27 05:08:30;;;;;;;25.43;7.28;;;;;;;11.64;84.87;99036.52;1708651;82;21499;-64
2021/08/27 05:10:57;;;;;;;15.68;6.15;;;;;;;11.71;84.71;99033.91;1709335;82;21625;-64
2021/08/27 05:13:23;;;;;;;20.57;6.70;;;;;;;11.78;84.71;99043.03;1707982;82;20985;-64
2021/08/27 05:15:50;;;;;;;21.83;7.10;;;;;;;11.80;84.56;99035.93;1706910;82;21271;-64
2021/08/27 05:18:17;;;;;;;25.00;10.18;;;;;;;11.88;84.76;99047.73;1711452;82;21080;-65
2021/08/27 05:20:44;;;;;;;31.20;11.63;;;;;;;11.95;84.74;99039.38;1703781;82;21040;-64
2021/08/27 05:23:10;;;;;;;29.33;7.63;;;;;;;12.03;84.76;99037.58;1701293;82;21613;-64
2021/08/27 05:25:37;;;;;;;30.20;6.80;;;;;;;12.05;84.59;99039.64;1700477;81;21411;-63
2021/08/27 05:28:04;;;;;;;20.35;6.15;;;;;;;12.05;84.38;99037.02;1710930;82;21060;-64
2021/08/27 05:30:31;;;;;;;19.12;5.60;;;;;;;12.01;84.23;99033.74;1708870;82;21020;-63
2021/08/27 05:32:58;;;;;;;9.60;4.13;;;;;;;12.01;84.23;99032.91;1706144;82;20945;-64
2021/08/27 05:35:25;;;;;;;12.13;6.05;;;;;;;12.00;84.28;99035.17;1688446;82;21044;-63
2021/08/27 05:37:52;;;;;;;11.60;7.08;;;;;;;12.06;84.33;99045.23;1694266;82;21032;-63
2021/08/27 05:40:20;;;;;;;9.45;5.87;;;;;;;12.33;84.42;99045.72;1705649;82;22417;-64
2021/08/27 05:42:46;;;;;;;7.70;5.12;;;;;;;12.33;84.42;99045.72;1704101;82;21523;-64
2021/08/27 05:45:15;;;;;;;6.37;4.43;;;;;;;12.47;84.64;99046.95;1706358;82;21495;-64
2021/08/27 05:47:52;;;;;;;10.70;5.10;;;;;;;12.68;84.79;99055.98;1760211;80;20989;-64
2021/08/27 05:50:20;;;;;;;36.20;6.75;;;;;;;12.94;84.75;99062.60;1727504;81;21097;-64
2021/08/27 05:52:48;;;;;;;26.55;6.08;;;;;;;13.11;84.48;99067.53;1757504;80;21747;-63
2021/08/27 05:55:16;;;;;;;24.70;6.35;;;;;;;13.12;84.11;99066.58;1756556;80;20972;-63
2021/08/27 05:57:47;;;;;;;23.20;6.20;;;;;;;13.20;84.14;99061.66;1760150;80;21020;-63
2021/08/27 06:00:17;;;;;;;22.17;6.10;;;;;;;13.40;84.62;99064.72;1760121;80;21018;-63
2021/08/27 06:02:43;;;;;;;17.42;4.80;;;;;;;13.63;84.62;99061.31;1757945;80;21484;-63
2021/08/27 06:05:11;;;;;;;11.35;3.10;;;;;;;13.73;84.16;99058.06;1738289;81;21518;-62
2021/08/27 06:07:38;;;;;;;4.78;3.42;;;;;;;13.72;83.54;99064.23;1758279;81;21046;-62
2021/08/27 06:10:08;;;;;;;5.78;3.02;;;;;;;13.58;83.29;99057.34;1737524;81;20989;-62
2021/08/27 06:12:35;;;;;;;5.58;3.58;;;;;;;13.52;83.45;99055.98;1747052;80;21504;-62
2021/08/27 06:15:02;;;;;;;6.67;3.47;;;;;;;13.48;83.42;99061.09;1751536;81;20923;-62
2021/08/27 06:17:29;;;;;;;2.83;2.17;;;;;;;13.37;83.17;99064.94;1753732;80;21822;-62
2021/08/27 06:19:56;;;;;;;3.50;2.40;;;;;;;13.18;83.02;99060.91;1756095;81;21056;-62
2021/08/27 06:22:23;;;;;;;2.87;1.77;;;;;;;13.00;83.26;99064.80;1752272;80;20978;-62
2021/08/27 06:24:51;;;;;;;8.35;1.90;;;;;;;12.92;83.59;99073.65;1764135;80;21031;-63
2021/08/27 06:27:18;;;;;;;6.10;1.60;;;;;;;13.00;84.04;99080.52;1759234;80;20987;-63
2021/08/27 06:29:45;;;;;;;2.83;1.47;;;;;;;13.09;84.27;99083.83;1760012;81;21069;-62
2021/08/27 06:32:13;;;;;;;2.80;1.92;;;;;;;13.25;84.41;99089.32;1765520;80;20982;-63
2021/08/27 06:34:41;;;;;;;4.35;1.98;;;;;;;13.33;84.20;99092.30;1765719;80;21503;-63
2021/08/27 06:37:08;;;;;;;1.45;1.35;;;;;;;13.25;84.05;99080.14;1765813;79;21059;-62
2021/08/27 06:39:35;;;;;;;;;;;;;;;13.30;83.60;99100.38;1768470;80;21562;-62
2021/08/27 06:42:01;;;;;;;2.70;2.47;;;;;;;13.27;83.77;99095.34;1758952;79;21057;-62
2021/08/27 06:44:29;;;;;;;4.33;1.60;;;;;;;13.36;84.20;99099.95;1761652;80;21507;-62
2021/08/27 06:46:57;;;;;;;4.30;1.80;;;;;;;13.38;83.83;99100.69;1749610;80;21573;-63
2021/08/27 06:49:24;;;;;;;2.72;1.90;;;;;;;13.39;83.81;99105.01;1791374;79;21000;-62
2021/08/27 06:51:54;;;;;;;2.12;1.60;;;;;;;13.42;83.74;99102.17;1769154;79;21526;-62
2021/08/27 06:54:21;;;;;;;4.17;1.90;;;;;;;13.41;83.34;99101.78;1789941;79;21570;-62
2021/08/27 06:56:47;;;;;;;3.47;1.85;;;;;;;13.35;83.45;99108.77;1767027;80;20945;-63
2021/08/27 06:59:15;;;;;;;2.17;1.73;;;;;;;13.38;83.72;99113.80;1790665;78;21020;-63
2021/08/27 07:01:43;;;;;;;;;;;;;;;13.36;83.56;99110.43;1762854;80;20994;-63
2021/08/27 07:04:10;;;;;;;4.62;1.90;;;;;;;13.33;83.51;99105.40;1789949;78;20086;-63
2021/08/27 07:06:37;;;;;;;2.72;1.42;;;;;;;13.33;83.57;99111.95;1765451;79;22644;-63
2021/08/27 07:09:04;;;;;;;2.22;1.60;;;;;;;13.33;83.71;99110.64;1764717;80;21047;-64
2021/08/27 07:11:32;;;;;;;;;;;;;;;13.38;83.79;99112.01;1796066;79;21538;-63
2021/08/27 07:14:02;;;;;;;2.70;1.17;;;;;;;13.45;83.70;99110.30;1793911;78;20113;-63
2021/08/27 07:16:28;;;;;;;2.10;1.30;;;;;;;13.51;83.76;99112.02;1796120;78;21020;-63
2021/08/27 07:18:58;;;;;;;3.15;1.20;;;;;;;13.55;83.44;99108.22;1793019;78;21089;-64
2021/08/27 07:21:26;;;;;;;3.12;1.00;;;;;;;13.55;83.54;99108.22;1794174;78;20968;-64
2021/08/27 07:23:55;;;;;;;3.72;1.20;;;;;;;13.66;83.76;99108.31;1794735;79;24890;-64
2021/08/27 07:26:24;;;;;;;2.47;1.20;;;;;;;14.05;84.56;99111.70;1795021;78;20902;-64
2021/08/27 07:28:51;;;;;;;2.42;1.10;;;;;;;14.35;83.63;99107.83;1772324;79;21473;-64
2021/08/27 07:31:24;;;;;;;2.20;1.30;;;;;;;14.54;83.71;99109.52;1790823;79;21066;-65
2021/08/27 07:33:55;;;;;;;2.90;1.30;;;;;;;14.93;83.94;99108.00;1791191;79;20969;-64
2021/08/27 07:36:29;;;;;;;0.90;0.72;;;;;;;15.09;83.16;99099.77;1793818;79;20974;-65
2021/08/27 07:39:04;;;;;;;0.93;0.88;;;;;;;15.12;82.47;99103.48;1792388;78;20936;-64
2021/08/27 07:41:31;;;;;;;4.35;0.98;;;;;;;15.02;82.35;99105.15;1791944;79;20984;-65
2021/08/27 07:43:59;;;;;;;2.08;1.27;;;;;;;15.02;82.74;99107.30;1769666;80;21994;-65
2021/08/27 07:46:26;;;;;;;2.60;1.30;;;;;;;15.18;82.98;99112.24;1794470;78;21059;-66
2021/08/27 07:49:11;;;;;;;;;;;;;;;;;;;;;
2021/08/27 07:51:26;;;;;;;1.85;1.00;;;;;;;15.11;82.10;99105.77;1766107;79;21016;-65
2021/08/27 07:53:53;;;;;;;;;;;;;;;15.03;82.28;99109.44;1797419;79;21497;-65
2021/08/27 07:56:21;;;;;;;;;;;;;;;14.95;81.88;99116.58;1796083;79;21085;-64
2021/08/27 07:58:49;;;;;;;1.70;0.82;;;;;;;14.89;82.27;99115.25;1795460;78;20093;-64
2021/08/27 08:01:17;;;;;;;2.80;0.90;;;;;;;14.97;82.48;99119.46;1789939;79;20936;-64
2021/08/27 08:03:43;;;;;;;;;;;;;;;14.91;82.00;99121.24;1796119;78;21031;-64
2021/08/27 08:06:11;;;;;;;4.42;1.20;;;;;;;14.85;82.09;99121.70;1790693;78;20082;-64
2021/08/27 08:08:54;;;;;;;2.60;1.10;;;;;;;15.00;82.72;99123.66;1794431;78;20999;-64
2021/08/27 08:11:28;;;;;;;1.57;1.10;;;;;;;15.40;83.44;99117.54;1724128;81;21064;-64
2021/08/27 08:13:58;;;;;;;1.32;0.90;;;;;;;15.80;82.81;99119.73;1731365;81;20992;-64
2021/08/27 08:16:38;;;;;;;2.98;1.30;;;;;;;16.09;82.62;99112.64;1763513;78;20901;-67
2021/08/27 08:19:20;;;;;;;1.60;0.70;;;;;;;16.39;82.93;99120.37;1740173;81;20976;-61
2021/08/27 08:22:03;;;;;;;1.87;0.90;;;;;;;16.91;83.32;99116.11;1764401;79;20949;-71
2021/08/27 08:24:33;;;;;;;1.72;0.88;;;;;;;17.18;82.81;99108.52;1761609;79;20930;-69
2021/08/27 08:27:02;;;;;;;1.70;0.70;;;;;;;17.42;81.38;99120.59;1764496;79;20952;-68
2021/08/27 08:29:44;;;;;;;1.67;0.80;;;;;;;17.15;80.15;99124.61;1756928;79;21032;-67
2021/08/27 08:32:17;;;;;;;0.82;0.65;;;;;;;16.85;80.48;99121.89;1761764;80;20986;-71
2021/08/27 08:34:59;;;;;;;1.75;0.50;;;;;;;16.69;81.02;99119.19;1765123;81;21068;-69
2021/08/27 08:37:28;;;;;;;1.60;0.60;;;;;;;16.71;81.75;99129.10;1758430;79;21025;-68
2021/08/27 08:40:09;;;;;;;0.93;0.55;;;;;;;16.80;81.04;99124.07;1739406;81;21547;-67
2021/08/27 08:42:45;;;;;;;2.00;0.70;;;;;;;16.74;81.26;99131.48;1793805;79;20965;-67
2021/08/27 08:45:29;;;;;;;1.72;0.57;;;;;;;16.90;81.45;99135.54;1800334;78;21089;-67
2021/08/27 08:48:00;;;;;;;1.45;0.60;;;;;;;16.85;80.60;99136.39;1781195;78;21155;-66
2021/08/27 08:50:41;;;;;;;1.70;0.70;;;;;;;16.93;81.00;99132.64;1773211;80;20926;-67
2021/08/27 08:53:24;;;;;;;2.27;0.60;;;;;;;16.93;80.90;99144.51;1771828;79;20976;-68
2021/08/27 08:56:05;;;;;;;3.42;0.90;;;;;;;17.02;80.92;99141.10;1767003;80;21097;-66
2021/08/27 08:58:35;;;;;;;2.35;0.80;;;;;;;17.37;81.27;99136.00;1765946;80;20981;-67
2021/08/27 09:01:05;;;;;;;1.92;0.70;;;;;;;17.92;81.47;99135.72;1772043;80;21066;-66
2021/08/27 09:03:32;;;;;;;2.22;0.90;;;;;;;18.13;81.08;99139.14;1749614;80;21053;-67
2021/08/27 09:05:59;;;;;;;1.87;0.57;;;;;;;18.28;79.98;99140.91;1761640;80;20931;-67
2021/08/27 09:08:38;;;;;;;;;;;;;;;18.24;79.04;99135.56;1775863;80;21030;-66
2021/08/27 09:11:24;;;;;;;1.72;0.68;;;;;;;18.19;79.10;99143.05;1756964;80;20142;-68
2021/08/27 09:13:54;;;;;;;1.62;1.17;;;;;;;18.05;78.70;99145.09;1761013;80;21198;-68
2021/08/27 09:16:28;;;;;;;2.33;1.10;;;;;;;17.91;78.58;99145.45;1737188;80;20942;-68
2021/08/27 09:18:56;;;;;;;2.05;0.88;;;;;;;17.72;78.47;99149.30;1746472;80;20882;-67
2021/08/27 09:21:35;;;;;;;;;;;;;;;17.70;79.35;99147.27;1761895;80;21021;-67
2021/08/27 09:24:26;;;;;;;2.83;0.80;;;;;;;17.72;78.67;99149.30;1749002;80;20455;-68
2021/08/27 09:27:01;;;;;;;1.52;0.80;;;;;;;17.50;78.27;99152.45;1761844;79;21898;-67
2021/08/27 09:29:45;;;;;;;1.52;0.65;;;;;;;17.28;78.82;99148.17;1773969;79;21539;-69
2021/08/27 09:32:30;;;;;;;1.05;0.70;;;;;;;17.28;78.71;99152.59;1762114;80;20896;-67
2021/08/27 09:35:15;;;;;;;1.12;0.70;;;;;;;16.89;77.63;99151.02;1772910;79;21504;-66
2021/08/27 09:37:54;;;;;;;2.87;1.00;;;;;;;16.63;78.29;99148.66;1782505;79;20977;-67
2021/08/27 09:40:32;;;;;;;2.60;0.98;;;;;;;16.54;78.59;99146.78;1768321;80;21540;-66
2021/08/27 09:43:06;;;;;;;1.67;0.72;;;;;;;16.32;78.13;99149.81;1743298;80;21479;-67
2021/08/27 09:45:46;;;;;;;2.67;0.80;;;;;;;16.08;78.27;99160.52;1768537;80;20974;-68
2021/08/27 09:48:27;;;;;;;4.20;0.90;;;;;;;15.91;78.58;99164.10;1763696;79;22116;-69
2021/08/27 09:51:07;;;;;;;2.10;0.93;;;;;;;15.73;78.70;99165.90;1772986;79;20961;-69
2021/08/27 09:53:46;;;;;;;1.90;1.07;;;;;;;15.66;79.00;99166.00;1770349;80;21244;-68
2021/08/27 09:56:24;;;;;;;3.30;0.98;;;;;;;15.64;78.97;99161.33;1757214;80;21491;-67
2021/08/27 09:58:56;;;;;;;3.62;1.10;;;;;;;15.70;79.41;99168.77;1758648;80;21472;-67
2021/08/27 10:01:34;;;;;;;3.30;1.20;;;;;;;15.86;79.58;99174.53;1765646;80;20962;-65
2021/08/27 10:04:09;;;;;;;2.90;1.12;;;;;;;16.16;79.89;99173.55;1749106;80;20953;-66
2021/08/27 10:06:49;;;;;;;1.20;1.02;;;;;;;16.42;79.60;99169.69;1765674;80;20944;-66
2021/08/27 10:09:20;;;;;;;4.10;1.50;;;;;;;16.81;79.69;99175.86;1770705;80;20997;-68
2021/08/27 10:12:04;;;;;;;4.00;1.92;;;;;;;17.19;79.65;99174.81;1760323;80;20973;-67
2021/08/27 10:14:37;;;;;;;2.95;1.10;;;;;;;17.50;79.30;99174.88;1766504;79;20985;-67
2021/08/27 10:17:10;;;;;;;3.00;1.22;;;;;;;17.75;79.28;99176.76;1747002;80;21002;-68
2021/08/27 10:19:42;;;;;;;5.87;2.30;;;;;;;17.99;79.13;99173.86;1773224;80;21239;-66
2021/08/27 10:22:21;;;;;;;3.67;1.72;;;;;;;18.14;79.04;99167.71;1775222;79;21008;-66
2021/08/27 10:24:50;;;;;;;2.40;1.20;;;;;;;18.38;79.07;99170.84;1771510;79;20977;-67
2021/08/27 10:27:21;;;;;;;4.90;1.22;;;;;;;18.46;78.63;99167.05;1772067;80;21505;-68
2021/08/27 10:30:00;;;;;;;1.92;1.10;;;;;;;18.52;78.65;99173.09;1773376;80;20930;-69
2021/08/27 10:35:49;;;;;;;5.12;2.15;;;;;;;18.79;78.46;99175.59;1735448;81;20998;-68
2021/08/27 10:38:53;;;;;;;5.75;1.87;;;;;;;18.95;78.48;99171.91;1746114;80;20954;-67
2021/08/27 10:41:37;;;;;;;4.75;2.22;;;;;;;19.04;78.20;99174.69;1746664;82;21108;-65
2021/08/27 10:44:18;;;;;;;16.73;10.90;;;;;;;19.12;78.05;99173.51;1683345;85;20994;-67
2021/08/27 10:47:23;;;;;;;6.65;4.12;;;;;;;19.12;77.21;99169.05;1871176;74;23246;-66
2021/08/27 10:49:58;;;;;;;2.52;1.10;;;;;;;18.95;77.35;99174.55;1844209;77;21622;-67
2021/08/27 10:52:40;;;;;;;2.52;1.27;;;;;;;18.92;77.45;99173.51;1812646;77;20958;-66
2021/08/27 10:55:23;;;;;;;2.42;1.55;;;;;;;18.99;77.61;99169.34;1841406;77;21004;-67
2021/08/27 10:58:03;;;;;;;2.65;1.40;;;;;;;19.16;77.81;99172.27;1846481;76;20985;-68
2021/08/27 11:00:43;;;;;;;4.42;1.62;;;;;;;19.37;77.88;99171.59;1829359;77;20944;-66
2021/08/27 11:03:19;;;;;;;6.45;4.53;;;;;;;19.52;77.60;99177.77;1809189;77;22106;-67
2021/08/27 11:05:52;;;;;;;7.37;4.08;;;;;;;19.48;77.15;99177.71;1811369;77;21233;-68
2021/08/27 11:08:41;;;;;;;5.85;3.10;;;;;;;19.23;76.44;99179.97;1843034;77;21558;-68
2021/08/27 11:11:34;;;;;;;3.75;2.15;;;;;;;18.99;76.61;99177.28;1828371;77;20997;-66
2021/08/27 11:14:26;;;;;;;2.77;2.40;;;;;;;18.89;76.77;99181.72;1839353;77;20930;-66
2021/08/27 11:17:03;;;;;;;8.03;2.27;;;;;;;18.87;76.79;99177.05;1836796;77;21009;-66
2021/08/27 11:19:42;;;;;;;4.17;1.17;;;;;;;18.84;76.66;99177.33;1843845;76;21116;-68
2021/08/27 11:22:35;;;;;;;0.95;0.70;;;;;;;18.95;77.02;99173.23;1844238;77;21027;-67
2021/08/27 11:25:11;;;;;;;3.05;0.68;;;;;;;19.05;76.47;99173.73;1676522;82;22280;-68
2021/08/27 11:27:38;;;;;;;2.58;0.88;;;;;;;18.96;76.33;99181.53;1679881;83;21002;-68
2021/08/27 11:30:39;;;;;;;2.17;0.80;;;;;;;19.03;76.44;99187.58;1684028;82;21511;-68
2021/08/27 11:33:01;;;;;;;;;;;;;;;18.93;75.83;99184.45;1686827;83;22201;-66
2021/08/27 11:35:40;;;;;;;1.92;1.10;;;;;;;18.69;75.20;99190.59;1661149;83;20112;-67
2021/08/27 11:38:13;;;;;;;1.75;0.90;;;;;;;18.53;75.78;99189.30;1660232;84;21202;-67
2021/08/27 11:40:42;;;;;;;1.07;0.60;;;;;;;18.47;75.94;99195.13;1641424;83;21874;-67
2021/08/27 11:43:10;;;;;;;1.27;0.85;;;;;;;18.40;75.72;99195.34;1636722;84;21784;-68
2021/08/27 11:45:40;;;;;;;1.65;0.70;;;;;;;18.31;75.75;99202.73;1693610;82;21251;-68
2021/08/27 11:48:11;;;;;;;1.37;0.50;;;;;;;18.17;75.46;99198.66;1668784;83;20992;-69
2021/08/27 11:53:09;;;;;;;3.10;0.80;;;;;;;17.72;75.07;99192.87;1829317;76;22529;-67
2021/08/27 11:55:48;;;;;;;1.17;0.50;;;;;;;17.57;75.12;99198.48;1827163;77;20949;-68
2021/08/27 11:58:17;;;;;;;0.68;0.45;;;;;;;17.55;75.40;99192.48;1829028;77;21022;-67
2021/08/27 12:00:47;;;;;;;1.00;0.68;;;;;;;17.59;74.79;99188.64;1822132;77;20964;-67
2021/08/27 12:03:15;;;;;;;1.12;0.55;;;;;;;17.47;74.73;99183.55;1822970;77;20891;-67
2021/08/27 12:05:42;;;;;;;2.42;0.70;;;;;;;17.53;75.24;99190.48;1823908;77;20983;-68
2021/08/27 12:08:16;;;;;;;1.22;0.60;;;;;;;17.79;75.39;99191.42;1825144;77;21039;-68
2021/08/27 12:10:46;;;;;;;0.85;0.50;;;;;;;18.03;75.26;99194.56;1821600;77;21911;-67
2021/08/27 12:13:14;;;;;;;0.60;0.50;;;;;;;18.14;74.49;99194.13;1830765;77;21004;-67